Time;durP1;ratioP1;P1;durP2;ratioP2;P2;SDS_P1;SDS_P2;PMS_P1;PMS_P2;Temp;Humidity;BMP_temperature;BMP_pressure;BME280_temperature;BME280_humidity;BME280_pressure;Samples;Min_cycle;Max_cycle;Signal;HPM_P1;HPM_P2
2022/10/22 00:00:08;;;;;;;14.53;7.87;;;10.50;99.90;12.00;96793.00;;;;4971737;28;21062;-64
2022/10/22 00:02:58;;;;;;;13.27;9.07;;;10.50;99.90;11.90;96777.00;;;;4971185;28;20207;-64
2022/10/22 00:05:48;;;;;;;11.50;9.10;;;10.50;99.90;11.80;96777.00;;;;4967797;28;20539;-65
2022/10/22 00:08:36;;;;;;;12.63;9.07;;;10.50;99.90;11.80;96777.00;;;;4971407;28;20286;-64
2022/10/22 00:11:25;;;;;;;17.97;8.60;;;10.50;99.90;12.00;96768.00;;;;4971174;28;20648;-64
2022/10/22 00:14:15;;;;;;;11.47;7.90;;;10.50;99.90;12.10;96785.00;;;;4969827;28;20583;-64
2022/10/22 00:17:04;;;;;;;16.03;9.80;;;10.50;99.90;11.90;96771.00;;;;4971767;28;20228;-64
2022/10/22 00:19:54;;;;;;;13.27;7.80;;;10.60;99.90;12.00;96770.00;;;;4969924;28;20243;-64
2022/10/22 00:22:43;;;;;;;17.60;7.77;;;10.50;99.90;11.90;96769.00;;;;4964323;28;20683;-64
2022/10/22 00:25:34;;;;;;;12.83;8.97;;;10.50;99.90;11.60;96782.00;;;;4972064;28;20215;-65
2022/10/22 00:28:23;;;;;;;11.13;7.40;;;10.50;99.90;11.30;96784.00;;;;4971118;28;20207;-65
2022/10/22 00:31:14;;;;;;;11.93;8.77;;;10.40;99.90;11.80;96773.00;;;;4965433;28;20199;-63
2022/10/22 00:34:03;;;;;;;11.50;8.47;;;10.40;99.90;11.70;96767.00;;;;4967524;28;20206;-64
2022/10/22 00:36:53;;;;;;;13.00;9.20;;;10.40;99.90;11.70;96769.00;;;;4970648;28;20310;-65
2022/10/22 00:39:42;;;;;;;16.97;9.23;;;10.40;99.90;11.60;96762.00;;;;4965944;28;20342;-65
2022/10/22 00:42:31;;;;;;;15.27;7.83;;;10.40;99.90;11.70;96753.00;;;;4971806;28;20227;-64
2022/10/22 00:45:24;;;;;;;13.63;9.23;;;10.30;99.90;11.60;96768.00;;;;4963446;28;20282;-64
2022/10/22 00:48:16;;;;;;;15.77;8.53;;;10.40;99.90;11.60;96765.00;;;;4986227;23;20719;-69
2022/10/22 00:51:07;;;;;;;13.73;9.03;;;10.30;99.90;11.50;96770.00;;;;4970848;28;20865;-69
2022/10/22 00:54:02;;;;;;;14.57;9.17;;;10.30;99.90;11.20;96768.00;;;;4956194;28;20730;-71
2022/10/22 00:56:50;;;;;;;13.27;9.37;;;10.20;99.90;11.60;96764.00;;;;4960288;28;20235;-70
2022/10/22 00:59:39;;;;;;;10.80;9.00;;;10.20;99.90;11.70;96760.00;;;;4957778;28;20313;-70
2022/10/22 01:02:28;;;;;;;13.97;9.13;;;10.20;99.90;11.70;96763.00;;;;4968111;28;20261;-71
2022/10/22 01:05:17;;;;;;;10.03;8.40;;;10.20;99.90;11.70;96757.00;;;;4983098;28;20190;-70
2022/10/22 01:08:14;;;;;;;10.80;8.30;;;10.20;99.90;11.40;96762.00;;;;4970097;28;20702;-70
2022/10/22 01:11:12;;;;;;;10.70;8.13;;;10.20;99.90;11.40;96745.00;;;;4970106;28;20199;-70
2022/10/22 01:14:12;;;;;;;10.40;7.83;;;10.20;99.90;11.50;96735.00;;;;4971659;28;20222;-70
2022/10/22 01:17:06;;;;;;;10.50;7.70;;;10.10;99.90;11.50;96729.00;;;;4971532;28;20229;-70
2022/10/22 01:20:11;;;;;;;11.27;8.50;;;10.10;99.90;11.50;96733.00;;;;4969010;28;20226;-71
2022/10/22 01:23:15;;;;;;;11.77;8.50;;;10.10;99.90;11.40;96733.00;;;;4971418;28;20281;-70
2022/10/22 01:26:12;;;;;;;21.00;9.47;;;10.20;99.90;11.70;96726.00;;;;4962692;28;20270;-70
2022/10/22 01:29:11;;;;;;;13.23;9.30;;;10.20;99.90;11.70;96715.00;;;;4959559;28;20617;-70
2022/10/22 01:32:05;;;;;;;13.37;9.37;;;10.20;99.90;11.50;96722.00;;;;4971191;28;20218;-70
2022/10/22 01:35:00;;;;;;;16.53;7.73;;;10.10;99.90;11.30;96729.00;;;;4967349;28;20211;-71
2022/10/22 01:37:54;;;;;;;15.67;9.70;;;10.10;99.90;11.20;96716.00;;;;4968919;28;20304;-71
2022/10/22 01:40:43;;;;;;;10.90;7.60;;;10.00;99.90;10.90;96727.00;;;;4970581;28;20255;-70
2022/10/22 01:43:32;;;;;;;12.23;8.80;;;10.00;99.90;11.00;96707.00;;;;4970352;28;20210;-70
2022/10/22 01:46:24;;;;;;;14.47;9.07;;;9.90;99.90;11.40;96711.00;;;;4967822;28;20266;-69
2022/10/22 01:49:21;;;;;;;14.50;8.97;;;9.90;99.90;11.50;96705.00;;;;4969212;28;20737;-70
2022/10/22 01:52:24;;;;;;;22.30;10.07;;;10.00;99.90;11.50;96701.00;;;;4965392;28;20208;-70
2022/10/22 01:55:26;;;;;;;9.90;7.47;;;10.00;99.90;11.40;96691.00;;;;4968084;28;20203;-69
2022/10/22 01:58:29;;;;;;;10.83;7.63;;;10.00;99.90;11.40;96687.00;;;;4966980;28;20317;-70
2022/10/22 02:01:30;;;;;;;18.00;7.10;;;10.00;99.90;11.50;96676.00;;;;4969346;28;20326;-70
2022/10/22 02:04:23;;;;;;;10.70;7.83;;;10.00;99.90;11.00;96660.00;;;;4968336;28;20246;-70
2022/10/22 02:07:19;;;;;;;15.03;8.37;;;9.90;99.90;10.80;96671.00;;;;4969220;28;20231;-71
2022/10/22 02:10:13;;;;;;;10.33;8.10;;;9.80;99.90;10.80;96665.00;;;;4969716;28;20214;-69
2022/10/22 02:13:03;;;;;;;13.83;8.37;;;9.70;99.90;11.00;96667.00;;;;4966113;28;20207;-70
2022/10/22 02:15:54;;;;;;;15.23;9.97;;;9.70;99.90;11.00;96667.00;;;;4967749;28;20218;-70
2022/10/22 02:18:46;;;;;;;14.57;8.10;;;9.70;99.90;10.80;96661.00;;;;4962765;28;20207;-71
2022/10/22 02:21:35;;;;;;;16.27;7.00;;;9.70;99.90;10.60;96656.00;;;;4963375;28;20199;-70
2022/10/22 02:24:25;;;;;;;13.50;8.00;;;9.60;99.90;10.90;96655.00;;;;4972584;28;20211;-70
2022/10/22 02:27:23;;;;;;;15.50;7.80;;;9.60;99.90;11.00;96662.00;;;;4970284;28;20688;-71
2022/10/22 02:30:17;;;;;;;9.10;7.23;;;9.60;99.90;11.10;96662.00;;;;4968799;28;20581;-70
2022/10/22 02:33:12;;;;;;;13.37;8.43;;;9.60;99.90;11.20;96650.00;;;;4972972;28;20250;-70
2022/10/22 02:36:04;;;;;;;11.03;8.07;;;9.70;99.90;11.20;96642.00;;;;4973295;28;20262;-70
2022/10/22 02:38:53;;;;;;;11.03;7.57;;;9.70;99.90;10.80;96631.00;;;;4973738;28;20555;-70
2022/10/22 02:41:42;;;;;;;10.57;7.70;;;9.70;99.90;10.80;96645.00;;;;4973560;28;20207;-70
2022/10/22 02:44:31;;;;;;;15.13;9.13;;;9.70;99.90;10.70;96637.00;;;;4973940;28;20249;-70
2022/10/22 02:47:20;;;;;;;10.87;7.23;;;9.60;99.90;10.70;96644.00;;;;4973216;28;20750;-71
2022/10/22 02:50:09;;;;;;;10.60;8.07;;;9.50;99.90;10.40;96656.00;;;;4973115;28;20207;-72
2022/10/22 02:52:59;;;;;;;17.98;11.00;;;9.50;99.90;10.00;96647.00;;;;4972098;28;20447;-72
2022/10/22 02:55:48;;;;;;;15.50;7.83;;;9.40;99.90;10.70;96639.00;;;;4970566;28;20258;-70
2022/10/22 02:58:36;;;;;;;14.30;9.03;;;9.40;99.90;10.90;96640.00;;;;4965791;28;20273;-70
2022/10/22 03:01:25;;;;;;;14.03;9.83;;;9.50;99.90;11.10;96645.00;;;;4971254;28;20220;-70
2022/10/22 03:04:14;;;;;;;14.10;8.37;;;9.50;99.90;11.10;96645.00;;;;4960306;28;20203;-70
2022/10/22 03:07:03;;;;;;;16.83;8.83;;;9.60;99.90;10.80;96654.00;;;;4974186;28;20222;-70
2022/10/22 03:09:53;;;;;;;10.70;7.10;;;9.60;99.90;10.90;96639.00;;;;4972456;28;20215;-70
2022/10/22 03:12:41;;;;;;;11.87;8.10;;;9.60;99.90;10.70;96640.00;;;;4959547;28;20203;-70
2022/10/22 03:15:30;;;;;;;20.20;7.73;;;9.50;99.90;10.60;96631.00;;;;4971822;28;20211;-71
2022/10/22 03:18:19;;;;;;;8.07;7.17;;;9.50;99.90;10.70;96627.00;;;;4972130;28;20227;-70
2022/10/22 03:21:13;;;;;;;11.80;8.17;;;9.50;99.90;10.70;96635.00;;;;4968589;28;20231;-69
2022/10/22 03:24:07;;;;;;;13.20;8.23;;;9.50;99.90;10.90;96638.00;;;;4967107;28;20199;-70
2022/10/22 03:26:58;;;;;;;11.37;7.77;;;9.60;99.90;11.10;96634.00;;;;4966382;28;20742;-70
2022/10/22 03:29:47;;;;;;;9.73;7.57;;;9.60;99.90;11.10;96627.00;;;;4971359;28;20277;-70
2022/10/22 03:32:36;;;;;;;12.80;8.53;;;9.60;99.90;10.90;96637.00;;;;4959916;28;20255;-70
2022/10/22 03:35:25;;;;;;;11.10;8.43;;;9.60;99.90;10.50;96629.00;;;;4972115;28;20703;-70
2022/10/22 03:38:14;;;;;;;10.20;7.67;;;9.50;99.90;10.30;96629.00;;;;4971195;28;20231;-70
2022/10/22 03:41:03;;;;;;;9.27;7.77;;;9.40;99.90;10.50;96622.00;;;;4967783;28;20290;-73
2022/10/22 03:43:54;;;;;;;13.83;7.60;;;9.40;99.90;10.70;96633.00;;;;4967445;28;20330;-73
2022/10/22 03:46:43;;;;;;;13.53;9.73;;;9.30;99.90;10.80;96645.00;;;;4969940;28;20263;-73
2022/10/22 03:49:32;;;;;;;8.97;7.63;;;9.40;99.90;10.60;96642.00;;;;4970141;28;20560;-71
2022/10/22 03:52:21;;;;;;;9.27;7.33;;;9.40;99.90;10.50;96647.00;;;;4972342;28;20237;-71
2022/10/22 03:55:10;;;;;;;15.93;8.13;;;9.40;99.90;10.70;96637.00;;;;4970537;28;20282;-70
2022/10/22 03:57:59;;;;;;;12.20;7.40;;;9.40;99.90;10.80;96646.00;;;;4970856;28;20355;-71
2022/10/22 04:00:49;;;;;;;10.93;7.33;;;9.40;99.90;10.80;96636.00;;;;4970785;28;20231;-71
2022/10/22 04:03:38;;;;;;;14.00;7.60;;;9.40;99.90;10.50;96633.00;;;;4969159;28;20230;-71
2022/10/22 04:06:29;;;;;;;10.33;6.60;;;9.40;99.90;10.40;96640.00;;;;4970833;28;20230;-71
2022/10/22 04:09:17;;;;;;;8.83;6.93;;;9.30;99.90;10.50;96618.00;;;;4968198;28;20279;-72
2022/10/22 04:12:08;;;;;;;10.80;6.23;;;9.30;99.90;10.50;96633.00;;;;4970022;28;20230;-71
2022/10/22 04:14:57;;;;;;;10.50;7.40;;;9.20;99.90;10.50;96650.00;;;;4972334;28;20679;-70
2022/10/22 04:17:47;;;;;;;12.37;7.50;;;9.20;99.90;10.50;96654.00;;;;4971414;28;20725;-71
2022/10/22 04:20:35;;;;;;;9.97;6.97;;;9.20;99.90;10.40;96657.00;;;;4968390;28;20232;-71
2022/10/22 04:23:24;;;;;;;14.70;7.43;;;9.20;99.90;10.50;96654.00;;;;4970463;28;20230;-71
2022/10/22 04:26:13;;;;;;;12.87;6.27;;;9.20;99.90;10.20;96645.00;;;;4970851;28;20207;-71
2022/10/22 04:29:01;;;;;;;15.10;8.10;;;9.10;99.90;10.20;96649.00;;;;4967580;28;20601;-71
2022/10/22 04:31:50;;;;;;;10.60;8.00;;;9.00;99.90;10.20;96656.00;;;;4972238;28;20831;-71
2022/10/22 04:34:40;;;;;;;8.93;6.70;;;9.00;99.90;10.30;96648.00;;;;4972035;28;20207;-71
2022/10/22 04:37:29;;;;;;;10.17;6.87;;;9.00;99.90;10.10;96659.00;;;;4969946;28;20281;-71
2022/10/22 04:40:18;;;;;;;14.73;7.57;;;9.00;99.90;10.10;96656.00;;;;4969294;28;20227;-70
2022/10/22 04:43:07;;;;;;;10.40;8.07;;;9.00;99.90;9.90;96649.00;;;;4969356;28;20195;-70
2022/10/22 04:45:55;;;;;;;8.90;6.67;;;8.90;99.90;9.50;96658.00;;;;4969845;28;20211;-71
2022/10/22 04:48:49;;;;;;;12.40;7.57;;;8.80;99.90;9.70;96657.00;;;;4958669;28;20215;-71
2022/10/22 04:51:39;;;;;;;9.17;7.27;;;8.70;99.90;9.50;96656.00;;;;4963399;28;20199;-72
2022/10/22 04:54:28;;;;;;;13.13;6.67;;;8.60;99.90;9.20;96646.00;;;;4969160;28;20203;-74
2022/10/22 04:57:17;;;;;;;9.00;6.43;;;8.50;99.90;9.40;96643.00;;;;4970554;28;20274;-70
2022/10/22 05:00:08;;;;;;;13.63;7.20;;;8.50;99.90;9.80;96644.00;;;;4958669;28;20254;-70
2022/10/22 05:02:57;;;;;;;12.43;8.00;;;8.50;99.90;10.10;96642.00;;;;4970136;28;20258;-70
2022/10/22 05:05:45;;;;;;;13.93;6.40;;;8.60;99.90;10.00;96629.00;;;;4968035;28;20250;-70
2022/10/22 05:08:36;;;;;;;13.90;7.53;;;8.60;99.90;10.00;96635.00;;;;4968914;28;20281;-70
2022/10/22 05:11:28;;;;;;;12.70;6.07;;;8.60;99.90;10.10;96643.00;;;;4968606;28;20208;-70
2022/10/22 05:14:19;;;;;;;8.37;6.40;;;8.70;99.90;10.10;96639.00;;;;4969947;28;20262;-71
2022/10/22 05:17:08;;;;;;;13.40;6.67;;;8.70;99.90;9.90;96627.00;;;;4971320;28;20215;-70
2022/10/22 05:19:57;;;;;;;11.30;6.87;;;8.70;99.90;9.90;96636.00;;;;4970687;28;20308;-70
2022/10/22 05:22:45;;;;;;;10.23;6.13;;;8.70;99.90;9.90;96636.00;;;;4969684;28;20782;-70
2022/10/22 05:25:39;;;;;;;8.17;6.13;;;8.70;99.90;10.10;96621.00;;;;4970351;28;20270;-70
2022/10/22 05:28:28;;;;;;;9.60;7.07;;;8.70;99.90;9.90;96608.00;;;;4969820;28;20710;-70
2022/10/22 05:31:17;;;;;;;12.57;6.47;;;8.70;99.90;9.70;96621.00;;;;4975017;28;20253;-70
2022/10/22 05:34:06;;;;;;;9.83;6.27;;;8.60;99.90;9.80;96617.00;;;;4971042;28;20208;-70
2022/10/22 05:36:54;;;;;;;7.80;6.43;;;8.60;99.90;9.50;96619.00;;;;4970891;28;20286;-72
2022/10/22 05:39:43;;;;;;;7.50;6.17;;;8.60;99.90;9.90;96633.00;;;;4972015;28;20629;-70
2022/10/22 05:42:33;;;;;;;12.80;8.57;;;8.60;99.90;10.00;96642.00;;;;4971044;28;20283;-69
2022/10/22 05:45:22;;;;;;;8.27;7.27;;;8.70;99.90;10.10;96640.00;;;;4965364;28;20262;-70
2022/10/22 05:48:13;;;;;;;12.87;7.20;;;8.70;99.90;9.80;96662.00;;;;4971372;28;20230;-70
2022/10/22 05:51:04;;;;;;;10.93;6.40;;;8.80;99.90;9.80;96653.00;;;;4969599;28;20215;-70
2022/10/22 05:53:55;;;;;;;8.87;6.00;;;8.60;99.90;10.10;96649.00;;;;4970547;28;20254;-69
2022/10/22 05:56:44;;;;;;;11.60;6.17;;;8.70;99.90;9.90;96639.00;;;;4974217;28;20226;-70
2022/10/22 05:59:34;;;;;;;13.53;7.07;;;8.70;99.90;9.80;96641.00;;;;4970239;28;20218;-70
2022/10/22 06:02:22;;;;;;;15.27;8.07;;;8.60;99.90;9.80;96647.00;;;;4971568;28;20227;-70
2022/10/22 06:05:11;;;;;;;9.63;7.30;;;8.70;99.90;9.90;96657.00;;;;4969583;28;20199;-71
2022/10/22 06:08:01;;;;;;;13.00;6.87;;;8.70;99.90;9.60;96668.00;;;;4969575;28;20301;-70
2022/10/22 06:10:49;;;;;;;9.50;6.07;;;8.70;99.90;9.80;96672.00;;;;4972800;28;20285;-70
2022/10/22 06:13:38;;;;;;;7.27;6.47;;;8.70;99.90;9.80;96668.00;;;;4973373;28;20196;-71
2022/10/22 06:16:30;;;;;;;12.37;6.17;;;8.70;99.90;9.90;96665.00;;;;4976558;28;20285;-70
2022/10/22 06:19:22;;;;;;;12.10;6.90;;;8.80;99.90;9.90;96682.00;;;;4974959;28;20206;-71
2022/10/22 06:22:10;;;;;;;9.47;5.83;;;8.70;99.90;9.80;96678.00;;;;4977703;28;20709;-71
2022/10/22 06:24:59;;;;;;;8.43;6.23;;;8.70;99.90;10.40;96681.00;;;;4974670;28;20195;-71
2022/10/22 06:27:50;;;;;;;14.30;7.13;;;8.80;99.90;10.60;96670.00;;;;4967851;28;20234;-71
2022/10/22 06:30:39;;;;;;;9.20;6.20;;;9.00;99.90;10.60;96669.00;;;;4977614;28;20208;-70
2022/10/22 06:33:32;;;;;;;13.17;6.43;;;9.00;99.90;10.40;96669.00;;;;4972772;28;20585;-70
2022/10/22 06:36:24;;;;;;;7.97;6.60;;;9.10;99.90;10.20;96682.00;;;;4967794;28;20203;-70
2022/10/22 06:39:15;;;;;;;8.60;5.90;;;9.10;99.90;10.30;96680.00;;;;4967160;28;20265;-71
2022/10/22 06:42:04;;;;;;;9.80;7.17;;;9.10;99.90;10.50;96674.00;;;;4973381;28;20255;-70
2022/10/22 06:44:52;;;;;;;15.60;7.07;;;9.20;99.90;10.80;96681.00;;;;4969467;28;20327;-69
2022/10/22 06:47:41;;;;;;;12.20;6.90;;;9.30;99.90;10.80;96689.00;;;;4973741;28;20230;-69
2022/10/22 06:50:31;;;;;;;8.60;6.20;;;9.30;99.90;10.90;96687.00;;;;4967807;28;20223;-69
2022/10/22 06:53:20;;;;;;;11.63;6.47;;;9.40;99.90;10.90;96700.00;;;;4969495;28;20203;-70
2022/10/22 06:56:12;;;;;;;8.43;5.83;;;9.50;99.90;10.90;96706.00;;;;4968641;28;20207;-70
2022/10/22 06:59:01;;;;;;;9.77;7.20;;;9.50;99.90;10.80;96717.00;;;;4971058;28;20254;-70
2022/10/22 07:01:49;;;;;;;16.40;6.47;;;9.50;99.90;11.20;96727.00;;;;4969573;28;20269;-70
2022/10/22 07:04:38;;;;;;;9.27;6.20;;;9.60;99.90;11.20;96732.00;;;;4969871;28;20203;-70
2022/10/22 07:07:28;;;;;;;8.10;6.23;;;9.70;99.90;11.30;96726.00;;;;4968054;28;20325;-69
2022/10/22 07:10:17;;;;;;;9.80;6.57;;;9.70;99.90;11.50;96722.00;;;;4963208;28;20261;-69
2022/10/22 07:13:06;;;;;;;10.70;6.43;;;9.80;99.90;11.50;96715.00;;;;4968800;28;20219;-69
2022/10/22 07:15:55;;;;;;;10.87;7.70;;;9.90;99.90;11.40;96711.00;;;;4969651;28;20557;-70
2022/10/22 07:18:45;;;;;;;19.47;8.57;;;10.00;99.90;11.60;96714.00;;;;4968830;28;20243;-69
2022/10/22 07:21:33;;;;;;;12.87;7.57;;;10.00;99.90;11.50;96715.00;;;;4970977;28;20199;-69
2022/10/22 07:24:24;;;;;;;12.67;7.97;;;10.10;99.90;11.30;96734.00;;;;4968892;28;20220;-70
2022/10/22 07:27:12;;;;;;;13.03;7.37;;;10.10;99.90;11.30;96751.00;;;;4970624;28;20238;-69
2022/10/22 07:30:01;;;;;;;7.90;6.57;;;10.20;99.90;11.40;96770.00;;;;4970373;28;20210;-70
2022/10/22 07:32:50;;;;;;;10.20;7.27;;;10.20;99.90;11.70;96774.00;;;;4968673;28;20705;-69
2022/10/22 07:35:40;;;;;;;16.20;8.93;;;10.20;99.90;11.90;96772.00;;;;4969331;28;20858;-69
2022/10/22 07:38:30;;;;;;;14.37;8.63;;;10.30;99.90;12.10;96782.00;;;;4970527;28;20258;-69
2022/10/22 07:41:20;;;;;;;11.73;7.93;;;10.30;99.90;11.90;96784.00;;;;4968643;28;20203;-69
2022/10/22 07:44:09;;;;;;;9.03;7.13;;;10.40;99.90;11.70;96778.00;;;;4971705;28;20258;-69
2022/10/22 07:46:57;;;;;;;10.33;7.73;;;10.40;99.90;11.90;96788.00;;;;4974068;28;20250;-69
2022/10/22 07:49:46;;;;;;;12.43;9.17;;;10.40;99.90;11.90;96794.00;;;;4966095;28;20204;-69
2022/10/22 07:52:35;;;;;;;17.93;9.53;;;10.50;99.90;12.10;96814.00;;;;4968482;28;20207;-69
2022/10/22 07:55:24;;;;;;;15.90;10.00;;;10.70;99.90;12.30;96814.00;;;;4970857;28;20250;-69
2022/10/22 07:58:14;;;;;;;12.30;6.70;;;10.70;99.90;12.10;96810.00;;;;4969293;28;20262;-69
2022/10/22 08:01:05;;;;;;;13.37;7.33;;;10.80;99.90;12.00;96809.00;;;;4967763;28;20616;-69
2022/10/22 08:03:53;;;;;;;11.30;6.93;;;10.70;99.90;12.10;96821.00;;;;4974336;28;20721;-69
2022/10/22 08:06:42;;;;;;;13.20;7.40;;;10.80;99.90;12.20;96820.00;;;;4969653;28;20678;-69
2022/10/22 08:09:32;;;;;;;14.93;8.73;;;10.80;99.90;12.20;96836.00;;;;4970635;28;20575;-69
2022/10/22 08:12:21;;;;;;;10.63;7.43;;;10.80;99.90;12.00;96821.00;;;;4971949;28;20208;-69
2022/10/22 08:15:11;;;;;;;14.80;7.63;;;10.80;99.90;12.20;96838.00;;;;4973447;28;20734;-69
2022/10/22 08:18:00;;;;;;;32.60;19.63;;;10.80;99.90;12.40;96839.00;;;;4973845;28;20227;-69
2022/10/22 08:20:49;;;;;;;25.77;14.57;;;10.90;99.90;12.60;96824.00;;;;4969104;28;20258;-69
2022/10/22 08:23:37;;;;;;;20.77;11.27;;;10.90;99.90;12.50;96833.00;;;;4968939;28;20324;-68
2022/10/22 08:26:26;;;;;;;16.00;9.47;;;11.00;99.90;12.50;96829.00;;;;4972521;28;20235;-69
2022/10/22 08:29:15;;;;;;;14.67;10.00;;;11.10;99.90;12.80;96834.00;;;;4966318;28;20295;-69
2022/10/22 08:32:05;;;;;;;17.37;10.33;;;11.20;99.90;12.80;96834.00;;;;4970090;28;20207;-69
2022/10/22 08:34:54;;;;;;;17.87;12.23;;;11.20;99.90;13.00;96834.00;;;;4967189;28;20207;-69
2022/10/22 08:37:43;;;;;;;17.87;12.60;;;11.30;99.90;13.00;96845.00;;;;4970125;28;20663;-68
2022/10/22 08:40:35;;;;;;;13.47;9.77;;;11.40;99.90;12.90;96848.00;;;;4965871;28;20203;-69
2022/10/22 08:44:04;;;;;;;18.43;11.50;;;11.40;99.90;12.80;96850.00;;;;4965747;28;20403;-69
2022/10/22 08:47:21;;;;;;;19.87;12.43;;;11.40;99.90;12.80;96845.00;;;;4962617;28;20266;-68
2022/10/22 08:50:12;;;;;;;16.80;11.83;;;10.40;99.90;12.90;96854.00;;;;4969440;28;20285;-69
2022/10/22 08:53:07;;;;;;;16.90;10.83;;;11.50;99.90;13.40;96849.00;;;;4971211;28;20265;-69
2022/10/22 08:55:57;;;;;;;21.13;11.53;;;11.60;99.90;13.60;96850.00;;;;4970672;28;20682;-68
2022/10/22 08:58:54;;;;;;;19.30;10.63;;;11.70;99.90;13.60;96862.00;;;;4966540;28;20628;-69
2022/10/22 09:01:46;;;;;;;12.10;9.17;;;11.80;99.90;13.80;96866.00;;;;4971187;28;20208;-69
2022/10/22 09:04:46;;;;;;;12.83;8.67;;;11.90;99.90;13.80;96866.00;;;;4967706;28;20259;-69
2022/10/22 09:07:47;;;;;;;12.57;9.73;;;12.00;99.90;14.00;96857.00;;;;4965796;28;20223;-69
2022/10/22 09:10:38;;;;;;;9.87;8.87;;;12.10;99.90;14.20;96866.00;;;;4969998;28;20235;-69
2022/10/22 09:13:27;;;;;;;15.70;8.83;;;12.20;99.90;14.30;96867.00;;;;4969375;28;20207;-69
2022/10/22 09:16:19;;;;;;;15.13;9.47;;;12.30;99.90;14.40;96871.00;;;;4969960;28;20686;-69
2022/10/22 09:19:20;;;;;;;11.17;8.67;;;12.50;99.90;14.10;96871.00;;;;4969397;28;20211;-69
2022/10/22 09:22:22;;;;;;;14.67;10.40;;;12.50;99.90;14.00;96871.00;;;;4970185;28;20206;-69
2022/10/22 09:25:20;;;;;;;11.47;9.37;;;12.50;99.90;14.00;96870.00;;;;4970339;28;20215;-69
2022/10/22 09:28:09;;;;;;;19.57;9.87;;;12.50;99.90;14.10;96872.00;;;;4967767;28;20231;-69
2022/10/22 09:30:58;;;;;;;13.57;9.03;;;12.50;99.90;14.40;96867.00;;;;4975940;28;20224;-69
2022/10/22 09:33:50;;;;;;;15.63;8.83;;;12.50;99.90;14.40;96871.00;;;;4971536;28;20678;-69
2022/10/22 09:36:39;;;;;;;14.27;9.67;;;12.60;99.90;14.20;96863.00;;;;4973133;28;20340;-69
2022/10/22 09:39:33;;;;;;;13.27;9.13;;;12.60;99.90;14.00;96866.00;;;;4971452;28;20246;-69
2022/10/22 09:42:23;;;;;;;14.50;12.07;;;12.60;99.90;14.30;96869.00;;;;4966695;28;20211;-69
2022/10/22 09:45:19;;;;;;;16.47;11.07;;;12.70;99.90;14.70;96868.00;;;;4964988;28;20290;-69
2022/10/22 09:48:19;;;;;;;13.13;10.10;;;12.70;99.90;14.90;96868.00;;;;4970285;28;20250;-68
2022/10/22 09:51:17;;;;;;;15.47;10.27;;;12.80;99.90;14.70;96866.00;;;;4973996;28;20211;-68
2022/10/22 09:54:17;;;;;;;11.60;8.97;;;13.00;99.90;14.50;96859.00;;;;4970549;28;20583;-68
2022/10/22 09:57:16;;;;;;;12.00;7.60;;;13.00;99.90;14.50;96860.00;;;;4973316;28;20227;-68
2022/10/22 10:00:10;;;;;;;17.43;10.00;;;13.00;99.90;14.80;96865.00;;;;4973523;28;20231;-68
2022/10/22 10:03:00;;;;;;;17.77;9.70;;;13.00;99.90;15.00;96866.00;;;;4961192;28;20219;-69
2022/10/22 10:05:55;;;;;;;17.77;9.63;;;13.10;99.90;15.10;96849.00;;;;4967875;28;20611;-69
2022/10/22 10:08:44;;;;;;;12.53;8.70;;;13.30;99.90;15.50;96847.00;;;;4971131;28;20653;-68
2022/10/22 10:11:40;;;;;;;12.50;9.17;;;13.40;99.90;15.40;96854.00;;;;4968780;28;20211;-69
2022/10/22 10:14:40;;;;;;;11.43;9.53;;;13.50;99.90;15.40;96862.00;;;;4969976;28;20208;-68
2022/10/22 10:17:38;;;;;;;11.07;8.90;;;13.60;99.90;15.60;96865.00;;;;4965809;28;20223;-69
2022/10/22 10:20:39;;;;;;;13.70;8.97;;;13.60;99.90;15.30;96857.00;;;;4967584;28;20556;-68
2022/10/22 10:23:37;;;;;;;9.53;7.63;;;13.70;99.90;15.50;96852.00;;;;4972719;28;20231;-69
2022/10/22 10:26:37;;;;;;;13.23;8.73;;;13.70;99.90;15.50;96862.00;;;;4968653;28;20243;-70
2022/10/22 10:29:45;;;;;;;10.93;9.33;;;13.70;99.90;15.40;96872.00;;;;4959826;28;20204;-69
2022/10/22 10:33:09;;;;;;;19.03;10.33;;;13.80;99.90;14.80;96873.00;;;;4962070;28;20207;-70
2022/10/22 10:36:08;;;;;;;13.43;9.53;;;13.70;99.90;14.80;96878.00;;;;4970230;28;20695;-70
2022/10/22 10:39:03;;;;;;;11.60;9.07;;;13.50;99.90;15.00;96887.00;;;;4971032;28;20203;-69
2022/10/22 10:42:03;;;;;;;17.50;8.87;;;13.50;99.90;15.40;96891.00;;;;4972215;28;20745;-69
2022/10/22 10:45:12;;;;;;;13.53;8.40;;;13.60;99.90;15.50;96897.00;;;;4977832;28;20329;-69
2022/10/22 10:48:37;;;;;;;15.17;9.57;;;13.60;99.90;15.70;96888.00;;;;4967495;28;20768;-69
2022/10/22 10:51:39;;;;;;;14.03;8.90;;;13.70;99.90;15.60;96887.00;;;;4968805;28;20200;-69
2022/10/22 10:54:45;;;;;;;17.70;11.63;;;13.80;99.90;15.60;96898.00;;;;4968786;28;20265;-69
2022/10/22 10:57:45;;;;;;;15.37;10.90;;;13.80;99.90;15.90;96897.00;;;;4968640;28;20219;-69
2022/10/22 11:00:45;;;;;;;11.53;9.37;;;13.90;99.90;16.00;96902.00;;;;4966227;28;20212;-69
2022/10/22 11:03:58;;;;;;;15.43;10.17;;;14.00;99.90;16.00;96906.00;;;;4960089;28;20289;-69
2022/10/22 11:06:49;;;;;;;14.70;9.57;;;14.10;99.90;16.10;96911.00;;;;4963165;28;20223;-69
2022/10/22 11:09:44;;;;;;;10.90;8.73;;;14.10;99.90;16.00;96910.00;;;;4966835;28;20191;-69
2022/10/22 11:12:38;;;;;;;10.27;8.90;;;14.20;99.90;16.20;96901.00;;;;4969293;28;20231;-69
2022/10/22 11:15:32;;;;;;;16.30;11.50;;;14.30;99.90;16.40;96898.00;;;;4967673;28;20226;-69
2022/10/22 11:18:29;;;;;;;11.83;8.93;;;14.30;99.90;16.50;96897.00;;;;4964547;28;20227;-69
2022/10/22 11:21:24;;;;;;;11.07;9.27;;;14.40;99.90;16.60;96897.00;;;;4974051;28;20212;-69
2022/10/22 11:24:22;;;;;;;13.13;8.37;;;14.50;99.90;16.60;96903.00;;;;4967472;28;20259;-69
2022/10/22 11:27:22;;;;;;;13.03;9.27;;;14.70;99.90;16.60;96900.00;;;;4970428;28;20223;-69
2022/10/22 11:30:15;;;;;;;12.60;8.27;;;14.70;99.90;16.80;96890.00;;;;4966905;28;20695;-69
2022/10/22 11:33:10;;;;;;;12.17;9.20;;;14.80;99.90;16.80;96897.00;;;;4963558;28;20282;-69
2022/10/22 11:36:03;;;;;;;12.47;9.37;;;14.90;99.90;16.90;96894.00;;;;4965908;28;20279;-69
2022/10/22 11:38:52;;;;;;;12.50;8.60;;;14.90;99.90;16.90;96887.00;;;;4961810;28;20675;-69
2022/10/22 11:41:41;;;;;;;11.53;9.03;;;15.00;99.90;16.70;96900.00;;;;4965842;28;20235;-69
2022/10/22 11:44:31;;;;;;;12.77;9.00;;;15.00;99.90;16.50;96897.00;;;;4968704;28;20310;-69
2022/10/22 11:47:26;;;;;;;15.90;9.67;;;15.00;99.90;16.10;96889.00;;;;4973060;28;20695;-69
2022/10/22 11:50:24;;;;;;;14.27;9.43;;;14.90;99.90;16.20;96895.00;;;;4970977;28;20239;-69
2022/10/22 11:53:29;;;;;;;12.00;8.57;;;14.80;99.90;16.30;96898.00;;;;4968390;28;20195;-69
2022/10/22 11:56:27;;;;;;;16.27;9.47;;;14.80;99.90;16.50;96902.00;;;;4966962;28;20207;-69
2022/10/22 11:59:39;;;;;;;10.13;9.00;;;14.70;99.90;16.50;96904.00;;;;4969383;28;20691;-69
2022/10/22 12:02:45;;;;;;;46.27;26.97;;;14.80;99.90;16.10;96899.00;;;;4974915;28;20219;-68
2022/10/22 12:05:39;;;;;;;20.90;12.53;;;14.70;99.90;16.40;96903.00;;;;4971740;28;20219;-69
2022/10/22 12:08:30;;;;;;;19.80;10.70;;;14.70;99.90;16.60;96907.00;;;;4973071;28;20215;-69
2022/10/22 12:11:23;;;;;;;15.87;10.27;;;14.80;99.90;16.30;96899.00;;;;4972576;28;20203;-69
2022/10/22 12:14:20;;;;;;;15.97;12.60;;;14.80;99.90;16.00;96901.00;;;;4971255;28;20270;-69
2022/10/22 12:17:14;;;;;;;15.10;9.50;;;14.70;99.90;16.10;96894.00;;;;4974160;28;20215;-69
2022/10/22 12:20:11;;;;;;;11.47;8.97;;;14.60;99.90;16.50;96899.00;;;;4974839;28;20257;-69
2022/10/22 12:23:00;;;;;;;13.57;9.53;;;14.60;99.90;16.20;96897.00;;;;4973076;28;20331;-69
2022/10/22 12:25:50;;;;;;;12.43;8.23;;;14.60;99.90;16.20;96905.00;;;;4965018;28;20227;-69
2022/10/22 12:28:40;;;;;;;13.07;11.63;;;14.60;99.90;16.20;96908.00;;;;4965868;28;20606;-69
2022/10/22 12:31:37;;;;;;;14.33;9.17;;;14.60;99.90;16.40;96908.00;;;;4965482;28;20203;-69
2022/10/22 12:34:26;;;;;;;19.40;11.37;;;14.60;99.90;16.30;96924.00;;;;4965632;28;20215;-69
2022/10/22 12:37:16;;;;;;;11.77;9.83;;;14.60;99.90;16.30;96918.00;;;;4968633;28;20219;-69
2022/10/22 12:40:18;;;;;;;12.87;8.40;;;14.60;99.90;16.20;96916.00;;;;4959992;28;20282;-69